Raleigh County Memorial Airport
KBKW : now visible

Airfield :











YOU CAN JOIN US ON...

 
LOGIN :

Register | Disclaimer

   EN    FR    IT 

 









Legend :    VFR   Marginal VFR   IFR   Intensive IFR   Very Intensive IFR
Visi :
Ceiling :
>= 8 km
>= 3000ft
5 to 8 km
1000 to 3000 ft
1500m to 5 km
500 to 1000 ft
800 to 1500m
200 to 500 ft
< 800m
< 200 ft
Symbols :   Thunderstorms  Fog  Heavy snow  Heavy precipitations  Wind > 20 kt






- Airport Elevation : 2504 ft
- IATA code : BKW


KBKW - Raleigh County Memorial

CURRENT METAR :
  • 082151Z AUTO 14008KT 10SM CLR 07/M04 A3017 RMK AO2 SLP235 T00671039 $

EXPIRED METARs :
  • 082051Z AUTO 13008KT 10SM CLR 08/M03 A3019 RMK AO2 SLP237 T00831028 55019 $
  • 081951Z AUTO 12010G16KT 10SM CLR 08/M03 A3019 RMK AO2 SLP237 T00831033 $
  • 081851Z AUTO 16008KT 10SM CLR 08/M03 A3022 RMK AO2 SLP246 T00831033 $

TAF KBKW
Valid from the 08 at 22:00 until the 09 at 18:00 UTC


082137Z 0822/0918 15009KT P6SM OVC250
FM090800 15007KT P6SM -RA OVC060
FM091100 18007KT 6SM -RA OVC025
FM091200 18008G15KT 5SM -RA OVC012 WS008/19030KT
FM091400 18009G15KT P6SM OVC100



MET'MAP, your aeronautical weather chart ! - Copyright ORBIFLY December 2007 - Disclaimer

ORBIFLY MET'MAP TEAM :

Programming & Development : Alexandra Zaïnal
Concept & original design : Baudouin d'Aumeries
Assistance for programming : Marc-Olivier Méhu
Technical & hardware support : Manuel Goepfert

Contact : metmap@orbifly.com




SOURCES & CREDITS :

   NOAA       Earth
Advisory